createdAt,value
2019-02-21T00:01:22.554Z,95.30
2019-02-21T00:03:49.845Z,95.40
2019-02-21T00:06:16.132Z,95.30
2019-02-21T00:08:42.428Z,95.40
2019-02-21T00:11:08.791Z,95.30
2019-02-21T00:13:35.141Z,95.30
2019-02-21T00:16:01.637Z,95.30
2019-02-21T00:18:28.000Z,95.30
2019-02-21T00:20:54.363Z,95.30
2019-02-21T00:23:20.739Z,95.30
2019-02-21T00:25:47.047Z,95.40
2019-02-21T00:28:13.304Z,95.40
2019-02-21T00:30:39.625Z,95.30
2019-02-21T00:33:05.768Z,95.30
2019-02-21T00:35:31.974Z,95.40
2019-02-21T00:37:58.112Z,95.40
2019-02-21T00:40:24.264Z,95.50
2019-02-21T00:42:50.432Z,95.60
2019-02-21T00:45:16.556Z,95.60
2019-02-21T00:47:42.688Z,95.70
2019-02-21T00:50:08.940Z,95.80
2019-02-21T00:52:35.064Z,95.90
2019-02-21T00:55:01.226Z,96.00
2019-02-21T00:57:27.336Z,96.10
2019-02-21T00:59:53.477Z,96.10
2019-02-21T01:02:19.711Z,96.20
2019-02-21T01:04:45.851Z,96.20
2019-02-21T01:07:11.970Z,96.30
2019-02-21T01:09:38.095Z,96.30
2019-02-21T01:12:04.234Z,96.30
2019-02-21T01:14:30.433Z,96.70
2019-02-21T01:16:56.574Z,96.50
2019-02-21T01:19:22.741Z,96.50
2019-02-21T01:21:48.943Z,96.50
2019-02-21T01:24:15.100Z,96.60
2019-02-21T01:26:41.243Z,96.60
2019-02-21T01:29:07.496Z,96.60
2019-02-21T01:31:33.632Z,96.70
2019-02-21T01:33:59.780Z,96.70
2019-02-21T01:36:25.899Z,96.70
2019-02-21T01:38:51.996Z,96.70
2019-02-21T01:41:18.238Z,96.70
2019-02-21T01:43:44.368Z,97.10
2019-02-21T01:46:10.624Z,96.80
2019-02-21T01:48:36.845Z,96.90
2019-02-21T01:51:03.081Z,96.90
2019-02-21T01:53:29.205Z,96.90
2019-02-21T01:55:55.332Z,96.90
2019-02-21T01:58:21.460Z,96.90
2019-02-21T02:00:47.596Z,96.90
2019-02-21T02:03:13.792Z,96.90
2019-02-21T02:05:39.969Z,96.90
2019-02-21T02:08:06.080Z,96.90
2019-02-21T02:10:32.355Z,96.90
2019-02-21T02:12:58.558Z,96.90
2019-02-21T02:15:24.680Z,96.90
2019-02-21T02:17:50.830Z,97.00
2019-02-21T02:20:17.058Z,97.10
2019-02-21T02:22:43.203Z,97.00
2019-02-21T02:25:09.328Z,97.10
2019-02-21T02:27:35.524Z,97.20
2019-02-21T02:30:01.682Z,97.20
2019-02-21T02:32:27.940Z,97.20
2019-02-21T02:34:54.050Z,97.20
2019-02-21T02:37:20.187Z,97.20
2019-02-21T02:39:46.294Z,97.20
2019-02-21T02:42:12.422Z,97.10
2019-02-21T02:44:38.589Z,97.10
2019-02-21T02:47:04.677Z,97.20
2019-02-21T02:49:30.816Z,97.20
2019-02-21T02:51:57.032Z,97.20
2019-02-21T02:54:23.191Z,97.10
2019-02-21T02:56:49.445Z,97.10
2019-02-21T02:59:15.725Z,97.20
2019-02-21T03:01:41.837Z,97.20
2019-02-21T03:04:08.062Z,97.20
2019-02-21T03:06:34.229Z,97.20
2019-02-21T03:09:00.359Z,97.30
2019-02-21T03:11:26.567Z,97.20
2019-02-21T03:13:52.727Z,97.30
2019-02-21T03:16:18.936Z,97.30
2019-02-21T03:18:45.092Z,97.20
2019-02-21T03:21:11.216Z,97.30
2019-02-21T03:23:37.392Z,97.30
2019-02-21T03:26:03.560Z,97.40
2019-02-21T03:28:29.719Z,97.40
2019-02-21T03:30:55.854Z,97.40
2019-02-21T03:33:21.989Z,97.40
2019-02-21T03:35:48.126Z,97.40
2019-02-21T03:38:14.310Z,97.60
2019-02-21T03:40:40.523Z,97.40
2019-02-21T03:43:06.713Z,97.40
2019-02-21T03:45:32.947Z,97.40
2019-02-21T03:47:59.095Z,97.40
2019-02-21T03:50:25.217Z,97.40
2019-02-21T03:52:51.322Z,97.30
2019-02-21T03:55:17.451Z,97.40
2019-02-21T03:57:43.624Z,97.40
2019-02-21T04:00:10.274Z,97.40
2019-02-21T04:02:36.499Z,97.40
2019-02-21T04:05:03.233Z,97.30
2019-02-21T04:07:29.471Z,97.40
2019-02-21T04:09:55.702Z,97.40
2019-02-21T04:12:21.826Z,97.30
2019-02-21T04:14:47.964Z,97.30
2019-02-21T04:17:14.106Z,97.30
2019-02-21T04:19:40.232Z,97.20
2019-02-21T04:22:06.488Z,97.30
2019-02-21T04:24:32.727Z,97.30
2019-02-21T04:26:58.939Z,97.40
2019-02-21T04:29:25.127Z,97.40
2019-02-21T04:31:51.232Z,97.50
2019-02-21T04:34:17.361Z,97.50
2019-02-21T04:36:43.532Z,97.50
2019-02-21T04:39:09.611Z,97.50
2019-02-21T04:41:35.830Z,97.40
2019-02-21T04:44:03.816Z,97.50
2019-02-21T04:46:30.022Z,97.40
2019-02-21T04:48:56.113Z,97.40
2019-02-21T04:51:22.276Z,97.30
2019-02-21T04:53:48.407Z,97.30
2019-02-21T04:56:14.537Z,97.30
2019-02-21T04:58:40.680Z,97.40
2019-02-21T05:01:06.821Z,97.30
2019-02-21T05:03:32.952Z,97.20
2019-02-21T05:05:59.068Z,97.20
2019-02-21T05:08:25.296Z,97.20
2019-02-21T05:10:51.444Z,97.20
2019-02-21T05:13:17.574Z,97.20
2019-02-21T05:15:43.814Z,97.40
2019-02-21T05:18:09.938Z,97.60
2019-02-21T05:20:36.167Z,97.60
2019-02-21T05:23:02.301Z,97.60
2019-02-21T05:25:28.459Z,97.60
2019-02-21T05:27:55.496Z,97.70
2019-02-21T05:30:23.611Z,97.70
2019-02-21T05:32:51.677Z,97.80
2019-02-21T05:35:25.380Z,97.70
2019-02-21T05:38:12.270Z,97.70
2019-02-21T05:40:55.235Z,97.60
2019-02-21T05:43:26.195Z,97.60
2019-02-21T05:46:02.976Z,97.60
2019-02-21T05:48:40.295Z,97.60
2019-02-21T05:51:14.583Z,97.60
2019-02-21T05:53:57.775Z,97.50
2019-02-21T05:56:34.643Z,97.50
2019-02-21T05:59:02.782Z,97.50
2019-02-21T06:01:30.812Z,97.50
2019-02-21T06:03:58.834Z,97.60
2019-02-21T06:06:35.857Z,97.60
2019-02-21T06:09:04.075Z,97.60
2019-02-21T06:11:35.372Z,97.60
2019-02-21T06:14:06.109Z,97.70
2019-02-21T06:16:34.174Z,97.80
2019-02-21T06:19:05.038Z,97.80
2019-02-21T06:21:39.257Z,97.80
2019-02-21T06:24:23.839Z,97.90
2019-02-21T06:26:51.899Z,97.80
2019-02-21T06:29:22.472Z,98.00
2019-02-21T06:31:47.835Z,98.30
2019-02-21T06:34:14.118Z,98.00
2019-02-21T06:36:40.227Z,98.00
2019-02-21T06:39:06.475Z,98.10
2019-02-21T06:41:32.628Z,98.00
2019-02-21T06:43:58.783Z,98.00
2019-02-21T06:46:24.924Z,97.90
2019-02-21T06:48:51.703Z,97.90
2019-02-21T06:51:17.986Z,97.90
2019-02-21T06:53:44.095Z,97.90
2019-02-21T06:56:10.340Z,97.90
2019-02-21T06:58:36.481Z,97.80
2019-02-21T07:01:02.741Z,97.90
2019-02-21T07:03:29.141Z,98.00
2019-02-21T07:05:55.504Z,98.00
2019-02-21T07:08:21.753Z,98.00
2019-02-21T07:10:47.904Z,98.00
2019-02-21T07:13:25.710Z,97.90
2019-02-21T07:15:41.942Z,98.00
2019-02-21T07:18:08.097Z,97.90
2019-02-21T07:20:34.343Z,97.90
2019-02-21T07:23:00.467Z,98.00
2019-02-21T07:25:32.508Z,98.10
2019-02-21T07:27:58.703Z,98.10
2019-02-21T07:30:24.830Z,98.20
2019-02-21T07:32:50.958Z,98.20
2019-02-21T07:35:17.099Z,98.20
2019-02-21T07:37:43.202Z,98.30
2019-02-21T07:40:19.503Z,98.30
2019-02-21T07:42:37.279Z,98.30
2019-02-21T07:45:03.859Z,98.50
2019-02-21T07:47:29.915Z,98.50
2019-02-21T07:49:56.052Z,98.50
2019-02-21T07:52:22.169Z,98.60
2019-02-21T07:54:49.584Z,98.60
2019-02-21T07:57:16.239Z,98.70
2019-02-21T07:59:42.359Z,98.70
2019-02-21T08:02:08.494Z,98.70
2019-02-21T08:04:37.027Z,98.70
2019-02-21T08:07:02.784Z,98.70
2019-02-21T08:09:29.305Z,98.70
2019-02-21T08:11:55.397Z,98.70
2019-02-21T08:14:21.532Z,98.70
2019-02-21T08:16:47.644Z,98.80
2019-02-21T08:19:13.772Z,98.70
2019-02-21T08:21:43.270Z,98.70
2019-02-21T08:24:07.875Z,98.70
2019-02-21T08:26:34.004Z,98.60
2019-02-21T08:29:00.110Z,98.70
2019-02-21T08:31:26.243Z,98.60
2019-02-21T08:33:58.765Z,98.60
2019-02-21T08:36:25.064Z,98.50
2019-02-21T08:38:51.176Z,98.60
2019-02-21T08:41:17.331Z,98.60
2019-02-21T08:43:43.430Z,98.50
2019-02-21T08:46:29.449Z,98.50
2019-02-21T08:48:55.651Z,98.40
2019-02-21T08:51:21.779Z,98.50
2019-02-21T08:53:48.025Z,98.50
2019-02-21T08:56:14.150Z,98.50
2019-02-21T08:58:40.420Z,98.50
2019-02-21T09:01:06.706Z,98.50
2019-02-21T09:03:32.833Z,98.60
2019-02-21T09:05:58.955Z,98.60
2019-02-21T09:08:33.221Z,98.80
2019-02-21T09:10:53.109Z,98.60
2019-02-21T09:13:19.219Z,98.70
2019-02-21T09:15:46.545Z,98.80
2019-02-21T09:18:12.961Z,99.00
2019-02-21T09:20:39.069Z,98.90
2019-02-21T09:23:05.309Z,99.00
2019-02-21T09:25:31.407Z,99.10
2019-02-21T09:27:59.769Z,99.30
2019-02-21T09:30:25.452Z,99.20
2019-02-21T09:32:51.558Z,99.10
2019-02-21T09:35:17.671Z,99.00
2019-02-21T09:37:43.806Z,98.80
2019-02-21T09:40:11.020Z,99.20
2019-02-21T09:42:37.903Z,99.60
2019-02-21T09:45:05.933Z,99.60
2019-02-21T09:47:32.019Z,99.50
2019-02-21T09:49:58.119Z,99.60
2019-02-21T09:52:24.247Z,99.70
2019-02-21T09:54:50.407Z,99.90
2019-02-21T09:57:16.822Z,99.90
2019-02-21T09:59:43.124Z,99.80
2019-02-21T10:02:09.624Z,99.90
2019-02-21T10:04:35.760Z,99.60
2019-02-21T10:07:01.851Z,99.30
2019-02-21T10:09:28.276Z,99.00
2019-02-21T10:11:54.377Z,98.90
2019-02-21T10:14:21.509Z,98.70
2019-02-21T10:16:49.586Z,98.60
2019-02-21T10:19:15.746Z,98.50
2019-02-21T10:21:41.856Z,98.40
2019-02-21T10:24:07.991Z,98.50
2019-02-21T10:26:34.461Z,98.10
2019-02-21T10:29:00.569Z,98.10
2019-02-21T10:31:26.716Z,97.60
2019-02-21T10:33:52.807Z,97.60
2019-02-21T10:36:18.916Z,96.80
2019-02-21T10:38:45.047Z,96.50
2019-02-21T10:41:11.153Z,96.40
2019-02-21T10:43:37.318Z,96.60
2019-02-21T10:46:03.544Z,96.70
2019-02-21T10:48:29.659Z,97.00
2019-02-21T10:50:55.763Z,96.40
2019-02-21T10:53:21.929Z,95.40
2019-02-21T10:55:48.195Z,94.80
2019-02-21T10:58:14.375Z,94.50
2019-02-21T11:00:40.481Z,95.30
2019-02-21T11:03:06.617Z,94.50
2019-02-21T11:05:32.728Z,94.90
2019-02-21T11:07:58.831Z,94.70
2019-02-21T11:10:26.963Z,94.30
2019-02-21T11:12:53.037Z,94.40
2019-02-21T11:15:20.335Z,94.90
2019-02-21T11:17:46.484Z,94.60
2019-02-21T11:20:13.790Z,94.10
2019-02-21T11:22:40.005Z,94.70
2019-02-21T11:25:07.531Z,94.30
2019-02-21T11:27:33.765Z,93.90
2019-02-21T11:29:59.928Z,94.00
2019-02-21T11:32:26.061Z,93.90
2019-02-21T11:34:52.261Z,94.20
2019-02-21T11:37:18.404Z,94.40
2019-02-21T11:39:44.527Z,94.60
2019-02-21T11:42:10.652Z,94.50
2019-02-21T11:44:36.805Z,94.80
2019-02-21T11:47:03.148Z,94.90
2019-02-21T11:49:29.308Z,94.40
2019-02-21T11:51:55.421Z,94.50
2019-02-21T11:54:26.935Z,94.50
2019-02-21T11:56:49.671Z,94.40
2019-02-21T11:59:16.214Z,94.20
2019-02-21T12:01:42.413Z,94.30
2019-02-21T12:04:08.545Z,94.50
2019-02-21T12:06:34.674Z,94.30
2019-02-21T12:09:00.780Z,94.10
2019-02-21T12:11:26.892Z,94.00
2019-02-21T12:13:53.027Z,93.70
2019-02-21T12:16:19.138Z,94.10
2019-02-21T12:18:45.272Z,94.30
2019-02-21T12:21:11.478Z,94.10
2019-02-21T12:23:37.592Z,94.10
2019-02-21T12:26:03.855Z,94.10
2019-02-21T12:28:29.972Z,94.10
2019-02-21T12:30:56.112Z,93.70
2019-02-21T12:33:22.373Z,93.40
2019-02-21T12:35:48.444Z,93.40
2019-02-21T12:38:14.547Z,93.80
2019-02-21T12:40:40.680Z,94.30
2019-02-21T12:43:06.802Z,93.70
2019-02-21T12:45:34.165Z,94.00
2019-02-21T12:48:00.289Z,93.60
2019-02-21T12:50:26.396Z,92.80
2019-02-21T12:52:52.536Z,92.00
2019-02-21T12:55:27.203Z,92.00
2019-02-21T12:57:46.617Z,91.80
2019-02-21T13:00:14.123Z,92.70
2019-02-21T13:02:40.336Z,93.00
2019-02-21T13:05:06.576Z,93.50
2019-02-21T13:07:32.717Z,93.00
2019-02-21T13:09:58.805Z,91.40
2019-02-21T13:12:24.952Z,91.00
2019-02-21T13:14:51.170Z,91.40
2019-02-21T13:17:17.283Z,91.40
2019-02-21T13:19:43.411Z,91.30
2019-02-21T13:22:09.557Z,92.40
2019-02-21T13:24:35.683Z,91.70
2019-02-21T13:27:01.892Z,92.20
2019-02-21T13:29:28.028Z,92.40
2019-02-21T13:31:54.196Z,91.00
2019-02-21T13:34:20.411Z,92.10
2019-02-21T13:36:46.563Z,92.30
2019-02-21T13:39:12.676Z,92.40
2019-02-21T13:41:38.854Z,90.70
2019-02-21T13:44:04.950Z,91.20
2019-02-21T13:46:37.450Z,91.50
2019-02-21T13:48:59.053Z,92.30
2019-02-21T13:51:25.151Z,91.10
2019-02-21T13:53:52.312Z,91.50
2019-02-21T13:56:18.741Z,92.20
2019-02-21T13:58:44.872Z,92.10
2019-02-21T14:01:11.006Z,92.50
2019-02-21T14:03:37.124Z,91.80
2019-02-21T14:06:04.066Z,91.00
2019-02-21T14:08:30.292Z,91.90
2019-02-21T14:10:56.387Z,92.10
2019-02-21T14:13:22.513Z,92.00
2019-02-21T14:15:48.675Z,91.90
2019-02-21T14:18:14.786Z,91.70
2019-02-21T14:20:45.496Z,91.70
2019-02-21T14:23:08.944Z,91.50
2019-02-21T14:25:40.872Z,91.90
2019-02-21T14:28:03.072Z,91.80
2019-02-21T14:30:29.161Z,91.80
2019-02-21T14:32:55.416Z,91.80
2019-02-21T14:35:21.564Z,91.90
2019-02-21T14:37:47.767Z,91.60
2019-02-21T14:40:14.306Z,91.90
2019-02-21T14:42:40.456Z,91.80
2019-02-21T14:45:08.353Z,92.10
2019-02-21T14:47:34.463Z,92.20
2019-02-21T14:50:00.601Z,92.40
2019-02-21T14:52:26.726Z,92.40
2019-02-21T14:54:52.846Z,92.40
2019-02-21T14:57:19.026Z,92.30
2019-02-21T14:59:45.224Z,92.10
2019-02-21T15:02:11.350Z,92.00
2019-02-21T15:04:38.326Z,91.90
2019-02-21T15:07:06.526Z,92.00
2019-02-21T15:09:32.625Z,92.00
2019-02-21T15:11:58.737Z,92.00
2019-02-21T15:14:27.738Z,92.00
2019-02-21T15:16:53.991Z,92.00
2019-02-21T15:19:20.111Z,92.00
2019-02-21T15:21:46.227Z,92.00
2019-02-21T15:24:13.119Z,92.00
2019-02-21T15:26:39.464Z,92.00
2019-02-21T15:29:05.620Z,92.10
2019-02-21T15:31:31.825Z,92.20
2019-02-21T15:33:57.977Z,92.20
2019-02-21T15:36:24.287Z,92.20
2019-02-21T15:38:50.672Z,92.20
2019-02-21T15:41:16.888Z,92.50
2019-02-21T15:43:43.153Z,92.70
2019-02-21T15:46:09.280Z,92.90
2019-02-21T15:48:35.585Z,92.90
2019-02-21T15:51:01.696Z,93.00
2019-02-21T15:53:27.834Z,93.20
2019-02-21T15:55:54.040Z,93.10
2019-02-21T15:58:20.160Z,92.90
2019-02-21T16:00:46.450Z,93.00
2019-02-21T16:03:12.594Z,93.00
2019-02-21T16:05:39.397Z,93.10
2019-02-21T16:08:05.691Z,93.10
2019-02-21T16:10:31.791Z,93.20
2019-02-21T16:12:58.496Z,93.20
2019-02-21T16:15:25.122Z,93.30
2019-02-21T16:17:51.258Z,93.20
2019-02-21T16:20:18.058Z,92.80
2019-02-21T16:22:44.390Z,92.50
2019-02-21T16:25:12.015Z,92.70
2019-02-21T16:27:38.287Z,92.40
2019-02-21T16:30:05.709Z,92.40
2019-02-21T16:32:31.912Z,92.50
2019-02-21T16:34:58.991Z,92.60
2019-02-21T16:37:25.232Z,92.50
2019-02-21T16:39:52.070Z,92.80
2019-02-21T16:42:18.468Z,92.30
2019-02-21T16:44:44.616Z,92.50
2019-02-21T16:47:10.734Z,92.50
2019-02-21T16:49:36.889Z,92.70
2019-02-21T16:52:03.204Z,92.50
2019-02-21T16:54:29.319Z,92.30
2019-02-21T16:56:55.544Z,92.60
2019-02-21T16:59:21.784Z,92.50
2019-02-21T17:01:47.994Z,92.80
2019-02-21T17:04:14.123Z,92.50
2019-02-21T17:06:40.271Z,92.20
2019-02-21T17:09:07.011Z,92.40
2019-02-21T17:11:33.118Z,92.10
2019-02-21T17:13:59.228Z,92.00
2019-02-21T17:16:25.362Z,92.00
2019-02-21T17:18:51.474Z,92.30
2019-02-21T17:21:17.707Z,93.20
2019-02-21T17:23:43.840Z,93.30
2019-02-21T17:26:10.040Z,93.50
2019-02-21T17:28:36.246Z,93.40
2019-02-21T17:31:02.512Z,93.70
2019-02-21T17:33:28.612Z,94.00
2019-02-21T17:35:54.769Z,94.10
2019-02-21T17:38:20.923Z,94.40
2019-02-21T17:40:47.036Z,94.70
2019-02-21T17:43:13.169Z,94.60
2019-02-21T17:45:39.339Z,94.60
2019-02-21T17:48:05.540Z,94.50
2019-02-21T17:50:31.696Z,94.60
2019-02-21T17:52:57.917Z,94.80
2019-02-21T17:55:24.136Z,95.40
2019-02-21T17:57:50.393Z,95.40
2019-02-21T18:00:18.735Z,95.90
2019-02-21T18:02:44.979Z,96.00
2019-02-21T18:05:11.180Z,96.20
2019-02-21T18:07:37.344Z,96.40
2019-02-21T18:10:05.365Z,96.90
2019-02-21T18:12:31.486Z,97.10
2019-02-21T18:14:57.684Z,96.70
2019-02-21T18:17:23.736Z,96.60
2019-02-21T18:19:49.967Z,96.90
2019-02-21T18:22:16.078Z,96.70
2019-02-21T18:24:42.284Z,96.40
2019-02-21T18:27:08.415Z,96.40
2019-02-21T18:29:34.550Z,96.40
2019-02-21T18:32:00.663Z,96.30
2019-02-21T18:34:26.795Z,96.30
2019-02-21T18:36:52.937Z,96.30
2019-02-21T18:39:19.797Z,96.20
2019-02-21T18:41:46.027Z,96.20
2019-02-21T18:44:12.173Z,96.20
2019-02-21T18:46:38.289Z,96.20
2019-02-21T18:49:04.518Z,96.00
2019-02-21T18:51:30.637Z,95.90
2019-02-21T18:53:56.762Z,95.90
2019-02-21T18:56:22.884Z,95.90
2019-02-21T18:58:49.003Z,95.90
2019-02-21T19:01:15.184Z,95.80
2019-02-21T19:03:41.299Z,95.90
2019-02-21T19:06:07.441Z,95.90
2019-02-21T19:08:33.547Z,95.90
2019-02-21T19:10:59.712Z,95.80
2019-02-21T19:13:25.811Z,95.80
2019-02-21T19:15:52.049Z,95.70
2019-02-21T19:18:18.177Z,95.70
2019-02-21T19:20:44.324Z,95.70
2019-02-21T19:23:10.539Z,95.70
2019-02-21T19:25:36.796Z,95.70
2019-02-21T19:28:03.018Z,95.60
2019-02-21T19:30:31.016Z,95.50
2019-02-21T19:32:57.251Z,95.30
2019-02-21T19:35:23.509Z,95.40
2019-02-21T19:37:49.612Z,95.40
2019-02-21T19:40:15.811Z,95.40
2019-02-21T19:42:42.068Z,95.40
2019-02-21T19:45:08.191Z,95.50
2019-02-21T19:47:34.631Z,95.60
2019-02-21T19:50:00.835Z,95.60
2019-02-21T19:52:26.957Z,95.60
2019-02-21T19:54:53.100Z,95.50
2019-02-21T19:57:19.249Z,95.50
2019-02-21T19:59:45.351Z,95.50
2019-02-21T20:02:11.553Z,95.60
2019-02-21T20:04:37.771Z,95.70
2019-02-21T20:07:04.006Z,95.60
2019-02-21T20:09:30.122Z,95.60
2019-02-21T20:11:56.224Z,95.60
2019-02-21T20:14:22.492Z,95.70
2019-02-21T20:16:48.702Z,95.70
2019-02-21T20:19:14.865Z,95.80
2019-02-21T20:21:40.968Z,95.80
2019-02-21T20:24:07.104Z,95.70
2019-02-21T20:26:33.221Z,95.80
2019-02-21T20:28:59.452Z,95.70
2019-02-21T20:31:25.576Z,95.70
2019-02-21T20:33:51.777Z,95.90
2019-02-21T20:36:18.026Z,96.10
2019-02-21T20:38:44.254Z,96.30
2019-02-21T20:41:10.961Z,96.70
2019-02-21T20:43:37.091Z,97.20
2019-02-21T20:46:03.325Z,97.10
2019-02-21T20:48:30.588Z,96.90
2019-02-21T20:50:57.420Z,96.60
2019-02-21T20:53:24.032Z,96.70
2019-02-21T20:55:50.189Z,96.60
2019-02-21T20:58:16.428Z,96.50
2019-02-21T21:00:43.399Z,96.50
2019-02-21T21:03:09.714Z,96.50
2019-02-21T21:05:35.873Z,96.40
2019-02-21T21:08:02.101Z,96.40
2019-02-21T21:10:28.244Z,96.40
2019-02-21T21:12:54.359Z,96.40
2019-02-21T21:15:20.601Z,96.30
2019-02-21T21:17:46.729Z,96.30
2019-02-21T21:20:17.078Z,96.30
2019-02-21T21:22:42.002Z,96.30
2019-02-21T21:25:09.515Z,96.40
2019-02-21T21:27:35.759Z,96.60
2019-02-21T21:30:02.244Z,96.70
2019-02-21T21:32:28.361Z,96.80
2019-02-21T21:34:54.610Z,97.10
2019-02-21T21:37:20.700Z,97.20
2019-02-21T21:39:46.810Z,97.10
2019-02-21T21:42:13.051Z,97.20
2019-02-21T21:44:39.189Z,97.10
2019-02-21T21:47:05.457Z,97.20
2019-02-21T21:49:31.563Z,97.00
2019-02-21T21:51:57.676Z,97.10
2019-02-21T21:54:23.934Z,97.00
2019-02-21T21:56:50.044Z,97.40
2019-02-21T21:59:16.201Z,97.10
2019-02-21T22:01:42.407Z,97.00
2019-02-21T22:04:08.551Z,97.40
2019-02-21T22:06:34.695Z,97.70
2019-02-21T22:09:04.679Z,97.70
2019-02-21T22:11:28.752Z,97.40
2019-02-21T22:13:54.986Z,98.00
2019-02-21T22:16:21.236Z,97.90
2019-02-21T22:18:47.355Z,97.90
2019-02-21T22:21:13.473Z,97.60
2019-02-21T22:23:39.638Z,97.80
2019-02-21T22:26:05.849Z,98.00
2019-02-21T22:28:31.975Z,98.10
2019-02-21T22:30:58.268Z,98.50
2019-02-21T22:33:26.326Z,98.70
2019-02-21T22:35:52.361Z,98.50
2019-02-21T22:38:18.467Z,98.80
2019-02-21T22:40:44.584Z,98.90
2019-02-21T22:43:10.756Z,98.40
2019-02-21T22:45:36.966Z,98.40
2019-02-21T22:48:03.143Z,98.20
2019-02-21T22:50:29.274Z,98.40
2019-02-21T22:52:55.366Z,98.20
2019-02-21T22:55:21.593Z,98.40
2019-02-21T22:57:47.738Z,98.50
2019-02-21T23:00:18.849Z,98.20
2019-02-21T23:02:45.066Z,98.30
2019-02-21T23:05:16.260Z,98.10
2019-02-21T23:07:42.377Z,97.70
2019-02-21T23:10:08.608Z,97.50
2019-02-21T23:12:34.838Z,97.80
2019-02-21T23:15:00.951Z,97.80
2019-02-21T23:17:27.089Z,98.10
2019-02-21T23:19:53.195Z,97.90
2019-02-21T23:22:19.311Z,97.70
2019-02-21T23:24:45.453Z,98.10
2019-02-21T23:27:11.589Z,98.30
2019-02-21T23:29:37.727Z,98.50
2019-02-21T23:32:04.057Z,98.30
2019-02-21T23:34:32.080Z,98.60
2019-02-21T23:36:58.328Z,98.80
2019-02-21T23:39:24.441Z,99.00
2019-02-21T23:41:50.590Z,99.00
2019-02-21T23:44:16.718Z,99.00
2019-02-21T23:46:42.839Z,98.30
2019-02-21T23:49:08.952Z,99.10
2019-02-21T23:51:35.071Z,99.60
2019-02-21T23:54:03.358Z,99.90
2019-02-21T23:56:29.114Z,99.90
2019-02-21T23:58:55.680Z,99.90
